Time;durP1;ratioP1;P1;durP2;ratioP2;P2;SDS_P1;SDS_P2;PMS_P1;PMS_P2;Temp;Humidity;BMP_temperature;BMP_pressure;BME280_temperature;BME280_humidity;BME280_pressure;Samples;Min_cycle;Max_cycle;Signal;HPM_P1;HPM_P2
2021/10/10 00:32:39;;;;;;;15.95;8.10;;;14.10;99.90;;;;;;6236424;22;20035;-96
2021/10/10 00:35:06;;;;;;;17.08;9.10;;;14.00;99.90;;;;;;6271006;23;20008;-96
2021/10/10 00:37:31;;;;;;;15.35;8.65;;;14.10;99.90;;;;;;6270485;23;20008;-95
2021/10/10 00:39:57;;;;;;;13.80;8.52;;;14.10;99.90;;;;;;6244430;23;20038;-96
2021/10/10 00:42:26;;;;;;;10.32;7.07;;;14.10;99.90;;;;;;6235832;23;20020;-96
2021/10/10 00:47:48;;;;;;;10.88;7.32;;;14.10;99.90;;;;;;6274536;22;20060;-96
2021/10/10 00:50:14;;;;;;;12.07;7.40;;;14.10;99.90;;;;;;6248965;23;20000;-96
2021/10/10 00:52:46;;;;;;;11.77;7.53;;;14.00;99.90;;;;;;6247036;23;19992;-96
2021/10/10 00:55:13;;;;;;;11.38;7.28;;;14.00;99.90;;;;;;6273972;22;20004;-96
2021/10/10 00:57:46;;;;;;;16.23;7.75;;;14.00;99.90;;;;;;6246761;23;20016;-96
2021/10/10 01:00:13;;;;;;;13.07;6.60;;;14.00;99.90;;;;;;6268121;23;20003;-96
2021/10/10 01:02:41;;;;;;;11.68;6.38;;;14.00;99.90;;;;;;6248848;23;20004;-96
2021/10/10 01:05:10;;;;;;;10.85;6.80;;;14.00;99.90;;;;;;6246144;23;20015;-96
2021/10/10 01:07:37;;;;;;;9.88;6.38;;;14.00;99.90;;;;;;6244974;23;20011;-95
2021/10/10 01:10:07;;;;;;;8.02;6.15;;;14.00;99.90;;;;;;6246149;23;19996;-96
2021/10/10 01:41:14;;;;;;;6.72;4.00;;;14.00;99.90;;;;;;6229711;22;20031;-96
2021/10/10 01:43:41;;;;;;;8.63;4.10;;;14.00;99.90;;;;;;6274842;22;20035;-96
2021/10/10 01:46:06;;;;;;;6.53;4.63;;;14.00;99.90;;;;;;6247937;23;20012;-96
2021/10/10 01:48:34;;;;;;;6.13;4.15;;;14.00;99.90;;;;;;6271351;23;20027;-96
2021/10/10 01:51:00;;;;;;;6.28;4.70;;;14.00;99.90;;;;;;6270404;23;20015;-96
2021/10/10 01:53:27;;;;;;;5.72;4.18;;;14.00;99.90;;;;;;6241435;23;20016;-96
2021/10/10 01:55:53;;;;;;;6.18;4.85;;;14.00;99.90;;;;;;6243841;23;20000;-96
2021/10/10 01:58:19;;;;;;;4.65;3.83;;;14.00;99.90;;;;;;6242662;23;20088;-96
2021/10/10 02:00:45;;;;;;;6.85;4.97;;;14.00;99.90;;;;;;6241270;23;20675;-96
2021/10/10 02:03:10;;;;;;;7.88;5.40;;;14.00;99.90;;;;;;6240672;23;20056;-96
2021/10/10 02:05:36;;;;;;;5.85;4.72;;;13.90;99.90;;;;;;6238237;23;20015;-96
2021/10/10 02:08:02;;;;;;;9.05;5.13;;;13.90;99.90;;;;;;6243380;23;20048;-96
2021/10/10 02:10:28;;;;;;;6.20;5.05;;;13.90;99.90;;;;;;6240655;23;20007;-96
2021/10/10 02:12:54;;;;;;;4.85;4.05;;;13.90;99.90;;;;;;6243036;23;20018;-96
2021/10/10 02:15:20;;;;;;;7.70;4.40;;;13.90;99.90;;;;;;6239713;23;20084;-96
2021/10/10 02:17:46;;;;;;;7.38;4.55;;;13.80;99.90;;;;;;6236184;23;20009;-96
2021/10/10 02:20:12;;;;;;;5.32;3.70;;;13.80;99.90;;;;;;6235010;23;20008;-95
2021/10/10 02:22:38;;;;;;;6.75;3.72;;;13.80;99.90;;;;;;6261722;23;20060;-96
2021/10/10 02:25:05;;;;;;;5.70;3.30;;;13.80;99.90;;;;;;6235540;23;20008;-96
2021/10/10 02:27:31;;;;;;;5.45;3.25;;;13.80;99.90;;;;;;6263013;23;20000;-95
2021/10/10 02:29:57;;;;;;;4.57;3.38;;;13.80;99.90;;;;;;6221403;23;20506;-95
2021/10/10 02:32:23;;;;;;;4.72;3.60;;;13.80;99.90;;;;;;6220491;23;20458;-95
2021/10/10 02:34:49;;;;;;;4.97;3.30;;;13.80;99.90;;;;;;6220524;23;20130;-96
2021/10/10 02:37:15;;;;;;;5.72;3.83;;;13.80;99.90;;;;;;6221293;23;20016;-96
2021/10/10 02:39:41;;;;;;;3.30;2.88;;;13.80;99.90;;;;;;6220817;23;20008;-95
2021/10/10 02:42:06;;;;;;;5.05;3.55;;;13.80;99.90;;;;;;6248750;23;20035;-94
2021/10/10 02:44:33;;;;;;;4.68;3.22;;;13.80;99.90;;;;;;6224008;23;20067;-96
2021/10/10 02:47:00;;;;;;;4.22;3.28;;;13.70;99.90;;;;;;6228708;23;19996;-96
2021/10/10 02:49:26;;;;;;;7.10;3.30;;;13.80;99.90;;;;;;6254661;23;20014;-95
2021/10/10 02:51:52;;;;;;;7.28;3.63;;;13.80;99.90;;;;;;6230505;23;20024;-96
2021/10/10 02:54:17;;;;;;;5.03;3.28;;;13.70;99.90;;;;;;6250427;23;20034;-94
2021/10/10 02:56:43;;;;;;;5.50;3.30;;;13.70;99.90;;;;;;6250735;23;20000;-96
2021/10/10 02:59:09;;;;;;;7.10;4.30;;;13.70;99.90;;;;;;6222961;23;20004;-96
2021/10/10 03:01:35;;;;;;;5.45;3.50;;;13.70;99.90;;;;;;6224052;23;20431;-96
2021/10/10 03:04:00;;;;;;;5.07;3.08;;;13.70;99.90;;;;;;6228253;23;20030;-96
2021/10/10 03:06:29;;;;;;;4.38;3.28;;;13.70;99.90;;;;;;6264916;23;20024;-95
2021/10/10 03:08:58;;;;;;;3.58;3.20;;;13.60;99.90;;;;;;6235243;23;20012;-96
2021/10/10 03:11:24;;;;;;;5.93;2.60;;;13.60;99.90;;;;;;6237900;23;20004;-96
2021/10/10 03:13:50;;;;;;;4.20;3.42;;;13.60;99.90;;;;;;6239835;23;20016;-96
2021/10/10 03:16:16;;;;;;;4.13;3.30;;;13.50;99.90;;;;;;6266141;23;20008;-96
2021/10/10 03:18:42;;;;;;;3.72;2.58;;;13.50;99.90;;;;;;6239818;23;20020;-96
2021/10/10 03:21:08;;;;;;;5.93;3.40;;;13.40;99.90;;;;;;6239762;23;20004;-96
2021/10/10 03:23:34;;;;;;;4.18;2.80;;;13.40;99.90;;;;;;6217303;23;20008;-96
2021/10/10 03:26:02;;;;;;;3.08;2.72;;;13.40;99.90;;;;;;6241713;23;20098;-96
2021/10/10 03:28:33;;;;;;;6.22;2.67;;;13.30;99.90;;;;;;6266600;23;20089;-96
2021/10/10 03:31:04;;;;;;;3.60;2.10;;;13.30;99.90;;;;;;6240540;23;19988;-96
2021/10/10 03:33:30;;;;;;;3.58;2.83;;;13.20;99.90;;;;;;6240301;23;20034;-96
2021/10/10 03:35:58;;;;;;;4.30;2.30;;;13.20;99.90;;;;;;6212793;23;20012;-96
2021/10/10 03:38:24;;;;;;;5.63;2.85;;;13.20;99.90;;;;;;6239684;23;20012;-96
2021/10/10 03:41:00;;;;;;;5.30;3.15;;;13.10;99.90;;;;;;6216308;23;20064;-96
2021/10/10 03:43:31;;;;;;;5.05;2.45;;;13.10;99.90;;;;;;6188863;23;20084;-96
2021/10/10 03:46:01;;;;;;;2.60;1.80;;;13.00;99.90;;;;;;6188798;23;20012;-96
2021/10/10 03:48:27;;;;;;;4.07;2.70;;;13.00;99.90;;;;;;6213279;23;20032;-96
2021/10/10 03:51:56;;;;;;;4.55;2.58;;;12.90;99.90;;;;;;6216529;23;20009;-96
2021/10/10 04:01:06;;;;;;;2.13;1.92;;;12.70;99.90;;;;;;6209042;22;20041;-96
2021/10/10 04:03:32;;;;;;;3.50;2.10;;;12.60;99.90;;;;;;6185937;23;20013;-96
2021/10/10 04:05:58;;;;;;;2.67;1.95;;;12.60;99.90;;;;;;6185637;23;20040;-96
2021/10/10 04:08:25;;;;;;;4.15;2.40;;;12.50;99.90;;;;;;6182899;23;20056;-96
2021/10/10 04:10:51;;;;;;;3.20;2.80;;;12.50;99.90;;;;;;6181797;23;20005;-96
2021/10/10 04:13:17;;;;;;;6.30;2.30;;;12.40;99.90;;;;;;6183315;23;20012;-96
2021/10/10 04:15:43;;;;;;;2.60;2.17;;;12.40;99.90;;;;;;6208563;23;20092;-96
2021/10/10 04:18:09;;;;;;;3.83;2.30;;;12.40;99.90;;;;;;6182822;23;20005;-96
2021/10/10 04:20:35;;;;;;;3.05;2.20;;;12.30;99.90;;;;;;6183904;23;20028;-95
2021/10/10 04:23:05;;;;;;;2.70;2.00;;;12.20;99.90;;;;;;6186012;23;20009;-96
2021/10/10 04:25:34;;;;;;;2.30;1.80;;;12.20;99.90;;;;;;6187104;23;19993;-96
2021/10/10 04:28:00;;;;;;;3.35;1.98;;;12.20;99.90;;;;;;6187536;23;20013;-96
2021/10/10 04:30:33;;;;;;;2.40;1.90;;;12.20;99.90;;;;;;6185320;23;20052;-96
2021/10/10 04:33:01;;;;;;;4.80;2.40;;;12.10;99.90;;;;;;6184133;23;20193;-96
2021/10/10 04:35:27;;;;;;;2.45;1.52;;;12.10;99.90;;;;;;6171031;23;20005;-96
2021/10/10 04:37:53;;;;;;;2.08;1.60;;;12.10;99.90;;;;;;6209520;23;20020;-96
2021/10/10 04:40:18;;;;;;;2.95;1.90;;;12.00;99.90;;;;;;6184342;23;20005;-96
2021/10/10 04:42:47;;;;;;;2.05;1.67;;;12.00;99.90;;;;;;6185099;23;20024;-95
2021/10/10 04:45:13;;;;;;;2.60;2.40;;;11.90;99.90;;;;;;6162007;23;20049;-96
2021/10/10 04:47:41;;;;;;;3.65;1.70;;;11.90;99.90;;;;;;6161707;23;20013;-95
2021/10/10 04:50:07;;;;;;;5.15;2.50;;;11.80;99.90;;;;;;6207527;23;20016;-96
2021/10/10 04:52:35;;;;;;;4.35;2.55;;;11.80;99.90;;;;;;6208561;23;20048;-96
2021/10/10 04:55:02;;;;;;;4.63;2.30;;;11.80;99.90;;;;;;6187732;23;20005;-96
2021/10/10 04:57:28;;;;;;;3.40;2.25;;;11.70;99.90;;;;;;6184683;23;20085;-96
2021/10/10 04:59:54;;;;;;;2.95;2.15;;;11.70;99.90;;;;;;6209666;23;20013;-96
2021/10/10 05:02:23;;;;;;;6.18;2.60;;;11.60;99.90;;;;;;6184938;23;20475;-95
2021/10/10 05:04:51;;;;;;;3.33;2.17;;;11.60;99.90;;;;;;6212646;23;20035;-96
2021/10/10 05:07:20;;;;;;;6.03;2.63;;;11.60;99.90;;;;;;6215830;22;20773;-96
2021/10/10 05:09:48;;;;;;;4.13;2.33;;;11.50;99.90;;;;;;6266874;22;19999;-96
2021/10/10 05:17:39;;;;;;;3.43;2.37;;;11.50;99.90;;;;;;6214012;23;20073;-96
2021/10/10 05:20:08;;;;;;;5.05;2.33;;;11.50;99.90;;;;;;6188109;23;20244;-95
2021/10/10 05:22:37;;;;;;;4.80;2.40;;;11.60;99.90;;;;;;6180297;23;20005;-96
2021/10/10 05:25:03;;;;;;;4.82;3.10;;;11.60;99.90;;;;;;6182570;23;20005;-96
2021/10/10 05:27:29;;;;;;;5.90;2.80;;;11.60;99.90;;;;;;6180969;23;20012;-96
2021/10/10 05:29:55;;;;;;;4.38;2.35;;;11.60;99.90;;;;;;6211052;23;20028;-96
2021/10/10 05:32:21;;;;;;;4.65;2.92;;;11.60;99.90;;;;;;6211142;23;20006;-96
2021/10/10 05:34:47;;;;;;;4.45;2.70;;;11.70;99.90;;;;;;6212100;23;19989;-96
2021/10/10 05:37:12;;;;;;;9.02;2.92;;;11.70;99.90;;;;;;6215437;22;20009;-96
2021/10/10 05:50:22;;;;;;;6.50;2.85;;;11.60;99.90;;;;;;6223020;22;20042;-93
2021/10/10 05:52:52;;;;;;;3.80;3.00;;;11.60;99.90;;;;;;6246041;23;20039;-94
2021/10/10 05:55:30;;;;;;;4.47;3.20;;;11.60;99.90;;;;;;6272272;23;20035;-95
2021/10/10 05:58:15;;;;;;;9.77;3.47;;;11.60;99.90;;;;;;6244588;23;20001;-96
2021/10/10 06:00:41;;;;;;;4.55;2.85;;;11.60;99.90;;;;;;6207358;23;20012;-95
2021/10/10 06:03:09;;;;;;;3.38;2.88;;;11.60;99.90;;;;;;6243220;23;20079;-95
2021/10/10 06:05:36;;;;;;;4.38;2.90;;;11.60;99.90;;;;;;6269370;23;20064;-95
2021/10/10 06:08:04;;;;;;;3.65;2.92;;;11.50;99.90;;;;;;6244846;23;20004;-94
2021/10/10 06:10:38;;;;;;;5.25;2.88;;;11.50;99.90;;;;;;6271464;23;19996;-96
2021/10/10 06:13:06;;;;;;;5.00;2.78;;;11.40;99.90;;;;;;6242675;23;19996;-96
2021/10/10 06:15:38;;;;;;;4.13;2.92;;;11.40;99.90;;;;;;6240961;23;20030;-95
2021/10/10 06:18:04;;;;;;;6.18;3.08;;;11.40;99.90;;;;;;6271293;23;19987;-95
2021/10/10 06:20:30;;;;;;;3.05;2.63;;;11.40;99.90;;;;;;6235086;23;20007;-95
2021/10/10 06:22:59;;;;;;;3.10;2.67;;;11.30;99.90;;;;;;6240486;23;20004;-95
2021/10/10 06:25:28;;;;;;;3.58;2.53;;;11.30;99.90;;;;;;6243093;23;20012;-95
2021/10/10 06:27:55;;;;;;;3.20;2.70;;;11.20;99.90;;;;;;6241517;23;20004;-95
2021/10/10 06:30:21;;;;;;;4.93;2.70;;;11.30;99.90;;;;;;6239009;23;20008;-94
2021/10/10 06:32:47;;;;;;;3.38;2.45;;;11.20;99.90;;;;;;6236850;23;20032;-94
2021/10/10 06:35:13;;;;;;;3.40;2.30;;;11.20;99.90;;;;;;6241050;23;20000;-96
2021/10/10 06:37:43;;;;;;;3.38;2.80;;;11.20;99.90;;;;;;6243585;23;19996;-96
2021/10/10 06:40:13;;;;;;;5.30;2.72;;;11.20;99.90;;;;;;6219950;23;20012;-96
2021/10/10 06:42:39;;;;;;;3.83;3.20;;;11.20;99.90;;;;;;6243812;23;20000;-95
2021/10/10 06:45:12;;;;;;;4.15;2.40;;;11.10;99.90;;;;;;6240474;23;20008;-95
2021/10/10 06:47:46;;;;;;;6.07;2.78;;;11.10;99.90;;;;;;6243829;23;20063;-95
2021/10/10 06:50:12;;;;;;;5.53;3.42;;;11.10;99.90;;;;;;6221793;23;20018;-96
2021/10/10 06:52:49;;;;;;;5.50;3.47;;;11.10;99.90;;;;;;6268485;23;20014;-94
2021/10/10 06:55:29;;;;;;;8.18;3.25;;;11.00;99.90;;;;;;6242548;23;20018;-95
2021/10/10 06:58:41;;;;;;;6.93;3.83;;;11.00;99.90;;;;;;6273361;23;20004;-96
2021/10/10 07:01:24;;;;;;;6.78;4.38;;;10.90;99.90;;;;;;6242264;22;20004;-96
2021/10/10 07:07:36;;;;;;;5.20;3.88;;;10.90;99.90;;;;;;6258371;22;20018;-95
2021/10/10 07:10:17;;;;;;;7.35;3.72;;;10.90;99.90;;;;;;6249971;22;20000;-95
2021/10/10 07:12:43;;;;;;;7.63;4.32;;;10.80;99.90;;;;;;6244418;23;20012;-96
2021/10/10 07:15:13;;;;;;;6.10;3.83;;;10.80;99.90;;;;;;6273104;22;19998;-96
2021/10/10 07:17:39;;;;;;;5.20;4.20;;;10.80;99.90;;;;;;6246880;23;20056;-95
2021/10/10 07:20:25;;;;;;;5.90;3.20;;;10.80;99.90;;;;;;6272522;23;20443;-96
2021/10/10 07:23:14;;;;;;;4.38;3.25;;;10.80;99.90;;;;;;6271405;23;20007;-95
2021/10/10 07:25:44;;;;;;;7.65;4.45;;;10.90;99.90;;;;;;6272199;23;19996;-95
2021/10/10 07:28:15;;;;;;;5.65;3.33;;;11.00;99.90;;;;;;6247194;23;19999;-95
2021/10/10 07:30:52;;;;;;;5.38;3.67;;;11.10;99.90;;;;;;6272744;23;19988;-95
2021/10/10 07:33:19;;;;;;;6.25;3.50;;;11.20;99.90;;;;;;6246888;23;20003;-94
2021/10/10 07:35:45;;;;;;;5.30;3.42;;;11.30;99.90;;;;;;6232360;22;20033;-95
2021/10/10 07:38:15;;;;;;;5.25;3.55;;;11.40;99.90;;;;;;6272588;22;20015;-96
2021/10/10 07:41:13;;;;;;;6.03;3.20;;;11.60;99.90;;;;;;6246978;23;20020;-95
2021/10/10 07:43:46;;;;;;;4.28;2.90;;;11.70;99.90;;;;;;6242620;23;20001;-96
2021/10/10 07:46:23;;;;;;;7.55;2.60;;;11.90;99.90;;;;;;6217433;23;19995;-96
2021/10/10 07:48:49;;;;;;;4.82;2.70;;;12.00;99.90;;;;;;6217096;23;20031;-95
2021/10/10 07:51:18;;;;;;;4.68;2.58;;;12.10;99.90;;;;;;6243698;23;19993;-95
2021/10/10 07:53:44;;;;;;;8.45;2.90;;;12.20;99.90;;;;;;6243539;23;20023;-96
2021/10/10 07:56:20;;;;;;;5.60;2.67;;;12.30;99.90;;;;;;6218022;23;19989;-96
2021/10/10 07:58:46;;;;;;;3.45;2.33;;;12.50;99.90;;;;;;6203227;23;20031;-96
2021/10/10 08:01:12;;;;;;;4.43;2.30;;;12.60;99.90;;;;;;6242206;23;20016;-95
2021/10/10 08:03:46;;;;;;;9.10;3.08;;;12.70;99.90;;;;;;6272201;22;20010;-94
2021/10/10 08:08:49;;;;;;;3.38;2.13;;;12.70;99.90;;;;;;6242052;22;20051;-96
2021/10/10 08:11:18;;;;;;;4.00;2.08;;;12.70;99.90;;;;;;6214312;23;20000;-96
2021/10/10 08:13:44;;;;;;;4.43;2.17;;;12.70;99.90;;;;;;6210406;23;20016;-96
2021/10/10 08:18:51;;;;;;;3.63;2.30;;;12.70;99.90;;;;;;6247645;22;20068;-96
2021/10/10 08:21:20;;;;;;;4.20;2.15;;;12.60;99.90;;;;;;6267591;22;20023;-95
2021/10/10 08:23:48;;;;;;;3.00;2.38;;;12.60;99.90;;;;;;6269979;23;19980;-96
2021/10/10 08:26:22;;;;;;;8.63;2.45;;;12.50;99.90;;;;;;6243773;23;20008;-95
2021/10/10 08:28:48;;;;;;;4.70;2.38;;;12.50;99.90;;;;;;6272120;23;19996;-96
2021/10/10 08:31:14;;;;;;;5.97;2.88;;;12.50;99.90;;;;;;6272604;22;20031;-96
2021/10/10 08:33:41;;;;;;;3.40;2.55;;;12.50;99.90;;;;;;6273721;22;20084;-96
2021/10/10 08:36:12;;;;;;;3.78;2.30;;;12.60;99.90;;;;;;6247155;23;19993;-96
2021/10/10 08:38:38;;;;;;;4.10;2.40;;;12.60;99.90;;;;;;6246612;23;19996;-95
2021/10/10 08:41:05;;;;;;;3.72;2.40;;;12.60;99.90;;;;;;6273289;22;19988;-96
2021/10/10 08:43:32;;;;;;;3.65;2.53;;;12.70;99.90;;;;;;6248590;23;20028;-95
2021/10/10 08:48:34;;;;;;;3.28;2.50;;;12.70;99.90;;;;;;6272786;22;20060;-95
2021/10/10 08:50:59;;;;;;;4.28;2.42;;;12.70;99.90;;;;;;6248480;23;20015;-96
2021/10/10 08:53:26;;;;;;;7.18;2.90;;;12.60;99.90;;;;;;6248035;23;20027;-95
2021/10/10 08:55:55;;;;;;;8.05;4.22;;;12.60;99.90;;;;;;6274668;23;20015;-95
2021/10/10 08:58:26;;;;;;;4.05;2.30;;;12.60;99.90;;;;;;6244679;23;20004;-95
2021/10/10 09:01:01;;;;;;;7.78;2.55;;;12.60;99.90;;;;;;6241709;23;20011;-96
2021/10/10 09:03:30;;;;;;;4.63;2.92;;;12.60;99.90;;;;;;6240392;23;20000;-95
2021/10/10 09:05:57;;;;;;;8.55;2.85;;;12.80;99.90;;;;;;6273396;23;20000;-95
2021/10/10 09:08:23;;;;;;;9.95;4.55;;;12.80;99.90;;;;;;6274263;22;19993;-95
2021/10/10 09:10:59;;;;;;;8.98;4.28;;;12.90;99.90;;;;;;6248584;23;20064;-95
2021/10/10 09:13:36;;;;;;;12.52;4.88;;;13.00;99.90;;;;;;6273460;23;20008;-95
2021/10/10 09:16:05;;;;;;;8.75;5.05;;;13.10;99.90;;;;;;6248118;23;20004;-95
2021/10/10 09:27:26;;;;;;;9.15;4.50;;;13.30;99.90;;;;;;6242696;23;20052;-95
2021/10/10 09:40:32;;;;;;;8.30;3.15;;;14.40;99.90;;;;;;6189854;22;20750;-95
2021/10/10 09:48:34;;;;;;;3.80;2.40;;;15.30;99.90;;;;;;6226395;22;20039;-96
2021/10/10 09:51:00;;;;;;;3.47;2.33;;;15.40;99.90;;;;;;6271259;22;19992;-96
2021/10/10 09:58:58;;;;;;;6.25;2.13;;;16.00;99.90;;;;;;6268622;22;20043;-96
2021/10/10 10:09:18;;;;;;;9.48;2.60;;;16.90;99.90;;;;;;6250990;23;20027;-95
2021/10/10 10:11:46;;;;;;;4.10;2.33;;;17.00;99.90;;;;;;6225380;23;20012;-95
2021/10/10 10:14:16;;;;;;;6.43;1.98;;;17.10;99.90;;;;;;6225582;23;20012;-94
2021/10/10 10:16:44;;;;;;;6.55;2.00;;;17.00;98.90;;;;;;6224344;23;20038;-93
2021/10/10 10:19:15;;;;;;;5.32;1.92;;;17.20;98.90;;;;;;6222341;23;20000;-95
2021/10/10 10:21:41;;;;;;;3.05;1.60;;;17.30;97.60;;;;;;6221238;23;20079;-95
2021/10/10 10:24:10;;;;;;;4.53;1.70;;;17.40;97.30;;;;;;6220763;23;20023;-95
2021/10/10 10:26:36;;;;;;;4.68;1.80;;;17.60;96.50;;;;;;6221553;23;20000;-95
2021/10/10 10:29:04;;;;;;;6.53;1.83;;;17.90;95.90;;;;;;6220999;23;20023;-94
2021/10/10 10:31:32;;;;;;;3.17;1.83;;;18.00;95.00;;;;;;6220823;23;20000;-95
2021/10/10 10:34:18;;;;;;;4.22;1.85;;;18.20;94.00;;;;;;6222702;23;20016;-94
2021/10/10 10:37:05;;;;;;;5.75;1.60;;;18.30;92.60;;;;;;6222289;23;20412;-94
2021/10/10 10:39:49;;;;;;;6.35;1.85;;;18.20;92.00;;;;;;6224181;23;20012;-94
2021/10/10 10:42:24;;;;;;;3.63;1.40;;;18.00;91.80;;;;;;6228947;23;20003;-95
2021/10/10 10:44:52;;;;;;;3.80;1.55;;;18.10;91.70;;;;;;6229949;23;20431;-95
2021/10/10 10:47:20;;;;;;;3.88;1.48;;;18.30;91.00;;;;;;6224709;23;20031;-94
2021/10/10 10:49:53;;;;;;;9.20;1.83;;;18.50;90.40;;;;;;6227375;23;20014;-96
2021/10/10 10:52:29;;;;;;;7.40;1.92;;;18.80;89.80;;;;;;6229636;23;20000;-95
2021/10/10 10:55:16;;;;;;;3.60;1.20;;;19.20;88.30;;;;;;6232858;23;20004;-95
2021/10/10 10:57:56;;;;;;;5.43;1.30;;;19.50;87.00;;;;;;6241065;23;20020;-95
2021/10/10 11:00:22;;;;;;;4.22;1.60;;;19.60;84.20;;;;;;6226571;23;20012;-95
2021/10/10 11:03:12;;;;;;;5.05;1.40;;;19.60;83.90;;;;;;6223068;23;20090;-95
2021/10/10 11:05:54;;;;;;;6.78;1.60;;;19.60;83.30;;;;;;6223799;23;20008;-95
2021/10/10 11:08:22;;;;;;;3.00;0.93;;;19.70;82.60;;;;;;6217578;23;20012;-94
2021/10/10 11:11:01;;;;;;;8.32;1.73;;;19.80;81.80;;;;;;6216399;23;19997;-95
2021/10/10 11:14:00;;;;;;;2.63;1.13;;;20.00;80.10;;;;;;6216700;23;20012;-95
2021/10/10 11:16:25;;;;;;;4.70;1.60;;;20.10;78.20;;;;;;6208951;23;20060;-96
2021/10/10 11:18:52;;;;;;;10.43;1.05;;;20.30;78.00;;;;;;6229062;23;20454;-94
2021/10/10 11:21:35;;;;;;;5.47;1.38;;;20.50;76.60;;;;;;6226067;23;20000;-95
2021/10/10 11:24:03;;;;;;;3.03;1.38;;;20.60;75.00;;;;;;6224238;23;20012;-96
2021/10/10 11:26:33;;;;;;;3.25;1.17;;;20.80;74.30;;;;;;6225079;23;20008;-95
2021/10/10 11:29:02;;;;;;;4.07;1.50;;;21.00;73.40;;;;;;6225600;23;20008;-96
2021/10/10 11:31:30;;;;;;;3.85;0.98;;;21.20;71.80;;;;;;6225468;23;20035;-96
2021/10/10 11:33:58;;;;;;;5.07;1.33;;;21.20;70.90;;;;;;6223846;23;20016;-96
2021/10/10 11:36:36;;;;;;;3.75;1.45;;;21.20;70.60;;;;;;6223152;23;20004;-96
2021/10/10 11:39:10;;;;;;;3.58;1.10;;;21.10;70.20;;;;;;6224421;23;20008;-96
2021/10/10 11:41:39;;;;;;;5.55;1.63;;;21.20;69.90;;;;;;6224532;23;20010;-96
2021/10/10 11:44:10;;;;;;;6.93;1.45;;;21.20;69.80;;;;;;6226460;23;20022;-95
2021/10/10 11:46:37;;;;;;;5.88;0.98;;;21.30;68.60;;;;;;6223231;23;20004;-94
2021/10/10 11:49:03;;;;;;;4.25;1.42;;;21.20;67.80;;;;;;6227980;23;20008;-94
2021/10/10 11:51:37;;;;;;;8.45;1.33;;;20.90;66.80;;;;;;6222161;23;20097;-95
2021/10/10 11:54:05;;;;;;;4.60;1.17;;;20.70;66.80;;;;;;6222191;23;20230;-95
2021/10/10 11:56:31;;;;;;;6.28;1.67;;;20.60;67.30;;;;;;6223784;23;20420;-95
2021/10/10 11:59:13;;;;;;;5.47;1.00;;;20.80;67.20;;;;;;6221185;23;20012;-94
2021/10/10 12:01:39;;;;;;;4.22;1.10;;;20.90;65.90;;;;;;6222255;23;20332;-95
2021/10/10 12:04:05;;;;;;;5.97;1.17;;;21.10;66.10;;;;;;6220861;23;20012;-94
2021/10/10 12:06:31;;;;;;;4.10;1.08;;;21.40;65.40;;;;;;6221762;23;20031;-93
2021/10/10 12:09:10;;;;;;;4.45;1.13;;;21.50;64.60;;;;;;6224352;23;20028;-94
2021/10/10 12:11:40;;;;;;;3.67;1.48;;;21.60;63.90;;;;;;6224564;23;20004;-95
2021/10/10 12:14:07;;;;;;;8.43;1.50;;;21.60;62.50;;;;;;6227644;23;20016;-94
2021/10/10 12:16:43;;;;;;;5.18;1.25;;;21.50;62.70;;;;;;6231906;23;20008;-94
2021/10/10 12:19:10;;;;;;;3.97;1.25;;;21.30;62.70;;;;;;6240035;23;20054;-94
2021/10/10 12:21:37;;;;;;;5.43;1.17;;;21.00;63.30;;;;;;6233673;23;20000;-93
2021/10/10 12:24:19;;;;;;;5.50;1.52;;;20.50;64.00;;;;;;6225977;23;20467;-93
2021/10/10 12:26:51;;;;;;;6.82;1.45;;;20.20;65.00;;;;;;6223012;23;20004;-94
2021/10/10 12:29:21;;;;;;;5.85;1.52;;;19.90;65.80;;;;;;6224084;23;20007;-95
2021/10/10 12:31:47;;;;;;;;;;;19.60;66.10;;;;;;6223010;23;20088;-93
2021/10/10 12:34:13;;;;;;;6.40;1.20;;;19.40;66.70;;;;;;6227778;23;20331;-95
2021/10/10 12:36:47;;;;;;;9.25;1.25;;;19.20;67.30;;;;;;6229103;23;19996;-95
2021/10/10 12:39:14;;;;;;;10.80;1.30;;;19.00;68.10;;;;;;6229994;23;20470;-95
2021/10/10 12:41:40;;;;;;;6.20;1.00;;;19.00;68.60;;;;;;6236750;23;20004;-94
2021/10/10 12:44:08;;;;;;;6.10;1.25;;;19.20;68.30;;;;;;6240743;23;20059;-95
2021/10/10 12:46:52;;;;;;;4.18;1.70;;;19.20;67.20;;;;;;6233435;23;20012;-95
2021/10/10 12:49:35;;;;;;;7.45;1.50;;;19.30;67.40;;;;;;6224475;23;20001;-95
2021/10/10 12:52:08;;;;;;;5.18;1.83;;;19.40;67.10;;;;;;6223155;23;20016;-94
2021/10/10 12:54:42;;;;;;;5.88;1.55;;;19.60;67.20;;;;;;6223294;23;20020;-95
2021/10/10 12:57:10;;;;;;;3.42;1.48;;;19.80;67.10;;;;;;6226585;23;20030;-95
2021/10/10 12:59:38;;;;;;;6.07;1.13;;;20.30;66.90;;;;;;6224619;23;20004;-96
2021/10/10 13:02:10;;;;;;;7.75;1.23;;;20.60;66.20;;;;;;6222770;23;20028;-95
2021/10/10 13:04:37;;;;;;;6.93;1.67;;;20.60;65.90;;;;;;6223433;23;20019;-96
2021/10/10 13:07:05;;;;;;;7.18;1.60;;;20.40;65.50;;;;;;6223491;23;20450;-94
2021/10/10 13:09:31;;;;;;;7.43;1.50;;;20.20;65.70;;;;;;6224915;23;20008;-94
2021/10/10 13:12:02;;;;;;;8.07;1.98;;;19.80;66.10;;;;;;6223736;23;20031;-94
2021/10/10 13:14:28;;;;;;;6.03;1.83;;;19.50;67.10;;;;;;6223207;23;20336;-94
2021/10/10 13:16:54;;;;;;;7.10;1.73;;;19.20;68.00;;;;;;6222659;23;20007;-93
2021/10/10 13:19:21;;;;;;;9.57;1.75;;;19.00;68.40;;;;;;6222030;23;20340;-94
2021/10/10 13:21:47;;;;;;;7.13;2.03;;;18.80;68.80;;;;;;6221181;23;20083;-94
2021/10/10 13:24:13;;;;;;;8.50;1.67;;;18.50;69.20;;;;;;6223993;23;20332;-94
2021/10/10 13:26:39;;;;;;;4.82;1.50;;;18.40;70.00;;;;;;6225987;23;20007;-94
2021/10/10 13:29:06;;;;;;;7.03;1.77;;;18.20;70.20;;;;;;6225375;23;20000;-93
2021/10/10 13:31:35;;;;;;;11.30;1.63;;;18.20;70.60;;;;;;6225861;23;20007;-95
2021/10/10 13:34:00;;;;;;;8.48;1.50;;;18.00;71.20;;;;;;6224571;23;20024;-94
2021/10/10 13:36:26;;;;;;;8.00;1.70;;;17.90;71.70;;;;;;6224954;23;20007;-95
2021/10/10 13:38:52;;;;;;;8.15;1.90;;;17.80;72.20;;;;;;6222696;23;20450;-95
2021/10/10 13:41:20;;;;;;;7.63;1.60;;;17.80;72.70;;;;;;6221294;23;20012;-94
2021/10/10 13:43:47;;;;;;;5.93;1.33;;;18.10;73.10;;;;;;6220178;23;20023;-95
2021/10/10 13:46:12;;;;;;;6.28;1.50;;;18.40;72.60;;;;;;6221744;23;20087;-96
2021/10/10 13:48:38;;;;;;;6.07;1.80;;;18.80;71.80;;;;;;6221614;23;20031;-95
2021/10/10 13:51:06;;;;;;;10.52;1.65;;;19.30;71.40;;;;;;6222334;23;20339;-95
2021/10/10 13:53:32;;;;;;;4.50;1.48;;;19.80;70.90;;;;;;6233506;23;20042;-93
2021/10/10 13:55:58;;;;;;;9.20;1.52;;;20.30;69.50;;;;;;6230706;23;20004;-94
2021/10/10 13:58:24;;;;;;;9.27;1.65;;;20.50;67.70;;;;;;6226249;23;20019;-95
2021/10/10 14:00:51;;;;;;;5.65;1.27;;;20.70;66.40;;;;;;6225231;23;20027;-95
2021/10/10 14:03:18;;;;;;;7.13;2.20;;;20.70;66.20;;;;;;6227322;23;20008;-94
2021/10/10 14:05:46;;;;;;;11.68;1.92;;;20.70;65.60;;;;;;6227525;23;20011;-93
2021/10/10 14:08:13;;;;;;;5.70;1.30;;;20.70;65.40;;;;;;6225553;23;20016;-95
2021/10/10 14:10:41;;;;;;;9.88;2.28;;;20.80;65.90;;;;;;6228129;23;20006;-95
2021/10/10 14:13:07;;;;;;;6.70;1.42;;;20.90;65.70;;;;;;6223717;23;20035;-94
2021/10/10 14:15:36;;;;;;;6.68;1.67;;;20.70;65.10;;;;;;6225686;23;20012;-94
2021/10/10 14:18:02;;;;;;;9.43;1.58;;;20.70;65.60;;;;;;6223592;23;20008;-95
2021/10/10 14:20:28;;;;;;;7.25;1.70;;;20.70;65.80;;;;;;6223008;23;20351;-94
2021/10/10 14:22:54;;;;;;;5.35;1.50;;;20.60;65.90;;;;;;6224260;23;20004;-95
2021/10/10 14:25:20;;;;;;;11.25;2.05;;;20.60;66.10;;;;;;6225255;23;20004;-95
2021/10/10 14:27:46;;;;;;;7.93;1.52;;;20.40;65.80;;;;;;6225672;23;20059;-95
2021/10/10 14:30:13;;;;;;;12.18;1.90;;;20.40;66.30;;;;;;6230260;23;20001;-95
2021/10/10 14:32:40;;;;;;;10.77;1.70;;;20.40;66.80;;;;;;6240480;23;20055;-94
2021/10/10 14:35:09;;;;;;;6.97;2.20;;;20.40;66.80;;;;;;6232601;23;20043;-95
2021/10/10 14:37:35;;;;;;;9.93;1.88;;;20.40;66.90;;;;;;6225289;23;20439;-95
2021/10/10 14:40:02;;;;;;;8.80;1.58;;;20.30;67.20;;;;;;6222807;23;20010;-95
2021/10/10 14:45:12;;;;;;;10.65;1.90;;;19.40;67.90;;;;;;6261920;23;20062;-94
2021/10/10 14:50:10;;;;;;;6.57;1.88;;;18.40;70.30;;;;;;6249675;23;20016;-96
2021/10/10 14:52:37;;;;;;;7.60;1.98;;;18.10;71.60;;;;;;6221994;23;20012;-94
2021/10/10 14:55:06;;;;;;;4.20;2.28;;;18.00;72.20;;;;;;6224046;23;20016;-94
2021/10/10 14:57:35;;;;;;;6.87;2.20;;;17.90;71.80;;;;;;6221631;23;20371;-93
2021/10/10 15:00:02;;;;;;;8.23;1.50;;;17.70;71.80;;;;;;6222442;23;20447;-92
2021/10/10 15:02:29;;;;;;;8.68;1.85;;;17.60;72.30;;;;;;6226372;23;20031;-94
2021/10/10 15:05:01;;;;;;;12.05;2.22;;;17.40;72.80;;;;;;6225195;23;20011;-95
2021/10/10 15:07:27;;;;;;;8.10;2.00;;;17.30;73.70;;;;;;6226864;23;20008;-94
2021/10/10 15:09:53;;;;;;;9.88;1.95;;;17.30;74.30;;;;;;6223104;23;20024;-95
2021/10/10 15:12:19;;;;;;;10.70;1.85;;;17.40;74.70;;;;;;6250238;23;20008;-92
2021/10/10 15:14:45;;;;;;;6.90;1.90;;;17.60;74.60;;;;;;6222408;23;20035;-94
2021/10/10 15:17:10;;;;;;;15.27;2.67;;;17.70;73.90;;;;;;6221848;23;20321;-94